sensor_id;sensor_type;location;lat;lon;timestamp;P1;durP1;ratioP1;P2;durP2;ratioP2
50932;SDS011;36921;49.006;9.292;2023-07-02T00:00:06;5.78;;;3.67;;
50932;SDS011;36921;49.006;9.292;2023-07-02T00:02:33;5.57;;;3.03;;
50932;SDS011;36921;49.006;9.292;2023-07-02T00:04:58;5.13;;;3.22;;
50932;SDS011;36921;49.006;9.292;2023-07-02T00:07:25;6.10;;;3.38;;
50932;SDS011;36921;49.006;9.292;2023-07-02T00:12:18;4.90;;;3.13;;
50932;SDS011;36921;49.006;9.292;2023-07-02T00:14:44;6.03;;;3.47;;
50932;SDS011;36921;49.006;9.292;2023-07-02T00:17:09;4.70;;;3.40;;
50932;SDS011;36921;49.006;9.292;2023-07-02T00:19:37;5.50;;;3.42;;
50932;SDS011;36921;49.006;9.292;2023-07-02T00:22:07;4.80;;;3.65;;
50932;SDS011;36921;49.006;9.292;2023-07-02T00:24:33;5.93;;;3.70;;
50932;SDS011;36921;49.006;9.292;2023-07-02T00:26:59;6.57;;;3.83;;
50932;SDS011;36921;49.006;9.292;2023-07-02T00:29:24;7.43;;;4.22;;
50932;SDS011;36921;49.006;9.292;2023-07-02T00:31:50;7.13;;;4.32;;
50932;SDS011;36921;49.006;9.292;2023-07-02T00:34:15;5.65;;;4.13;;
50932;SDS011;36921;49.006;9.292;2023-07-02T00:36:40;7.32;;;3.78;;
50932;SDS011;36921;49.006;9.292;2023-07-02T00:39:06;7.15;;;4.63;;
50932;SDS011;36921;49.006;9.292;2023-07-02T00:41:32;5.50;;;4.03;;
50932;SDS011;36921;49.006;9.292;2023-07-02T00:43:57;5.97;;;4.20;;
50932;SDS011;36921;49.006;9.292;2023-07-02T00:46:23;9.57;;;4.15;;
50932;SDS011;36921;49.006;9.292;2023-07-02T00:48:50;6.93;;;4.05;;
50932;SDS011;36921;49.006;9.292;2023-07-02T00:51:17;10.23;;;4.10;;
50932;SDS011;36921;49.006;9.292;2023-07-02T00:53:45;5.78;;;3.85;;
50932;SDS011;36921;49.006;9.292;2023-07-02T00:56:11;5.03;;;3.78;;
50932;SDS011;36921;49.006;9.292;2023-07-02T00:58:41;7.32;;;4.55;;
50932;SDS011;36921;49.006;9.292;2023-07-02T01:01:16;7.47;;;4.50;;
50932;SDS011;36921;49.006;9.292;2023-07-02T01:06:29;7.47;;;4.90;;
50932;SDS011;36921;49.006;9.292;2023-07-02T01:08:57;5.18;;;3.72;;
50932;SDS011;36921;49.006;9.292;2023-07-02T01:11:27;6.20;;;4.05;;
50932;SDS011;36921;49.006;9.292;2023-07-02T01:13:57;7.13;;;4.22;;
50932;SDS011;36921;49.006;9.292;2023-07-02T01:16:29;9.60;;;4.35;;
50932;SDS011;36921;49.006;9.292;2023-07-02T01:18:58;10.60;;;4.13;;
50932;SDS011;36921;49.006;9.292;2023-07-02T01:21:29;7.97;;;4.68;;
50932;SDS011;36921;49.006;9.292;2023-07-02T01:23:54;6.47;;;4.10;;
50932;SDS011;36921;49.006;9.292;2023-07-02T01:26:20;7.22;;;3.95;;
50932;SDS011;36921;49.006;9.292;2023-07-02T01:28:46;7.15;;;4.38;;
50932;SDS011;36921;49.006;9.292;2023-07-02T01:31:11;5.53;;;4.10;;
50932;SDS011;36921;49.006;9.292;2023-07-02T01:33:36;5.90;;;4.13;;
50932;SDS011;36921;49.006;9.292;2023-07-02T01:36:02;7.13;;;3.80;;
50932;SDS011;36921;49.006;9.292;2023-07-02T01:38:27;6.18;;;3.75;;
50932;SDS011;36921;49.006;9.292;2023-07-02T01:40:53;10.30;;;4.60;;
50932;SDS011;36921;49.006;9.292;2023-07-02T01:43:18;10.20;;;3.90;;
50932;SDS011;36921;49.006;9.292;2023-07-02T01:45:43;7.55;;;3.78;;
50932;SDS011;36921;49.006;9.292;2023-07-02T01:48:09;4.85;;;3.78;;
50932;SDS011;36921;49.006;9.292;2023-07-02T01:50:34;5.57;;;3.72;;
50932;SDS011;36921;49.006;9.292;2023-07-02T01:52:59;7.50;;;4.10;;
50932;SDS011;36921;49.006;9.292;2023-07-02T01:55:25;7.28;;;3.95;;
50932;SDS011;36921;49.006;9.292;2023-07-02T01:57:51;6.00;;;3.80;;
50932;SDS011;36921;49.006;9.292;2023-07-02T02:00:16;4.95;;;3.60;;
50932;SDS011;36921;49.006;9.292;2023-07-02T02:02:42;6.10;;;3.30;;
50932;SDS011;36921;49.006;9.292;2023-07-02T02:05:08;8.70;;;3.83;;
50932;SDS011;36921;49.006;9.292;2023-07-02T02:07:35;6.25;;;3.30;;
50932;SDS011;36921;49.006;9.292;2023-07-02T02:10:01;8.18;;;3.55;;
50932;SDS011;36921;49.006;9.292;2023-07-02T02:12:29;9.52;;;3.67;;
50932;SDS011;36921;49.006;9.292;2023-07-02T02:14:55;7.38;;;3.50;;
50932;SDS011;36921;49.006;9.292;2023-07-02T02:17:21;4.07;;;3.05;;
50932;SDS011;36921;49.006;9.292;2023-07-02T02:19:47;8.48;;;3.90;;
50932;SDS011;36921;49.006;9.292;2023-07-02T02:22:13;6.45;;;2.95;;
50932;SDS011;36921;49.006;9.292;2023-07-02T02:24:38;7.53;;;3.58;;
50932;SDS011;36921;49.006;9.292;2023-07-02T02:27:03;7.07;;;3.15;;
50932;SDS011;36921;49.006;9.292;2023-07-02T02:29:29;4.32;;;3.20;;
50932;SDS011;36921;49.006;9.292;2023-07-02T02:31:54;8.55;;;3.70;;
50932;SDS011;36921;49.006;9.292;2023-07-02T02:34:20;7.93;;;3.20;;
50932;SDS011;36921;49.006;9.292;2023-07-02T02:36:45;8.50;;;3.25;;
50932;SDS011;36921;49.006;9.292;2023-07-02T02:39:11;4.43;;;3.38;;
50932;SDS011;36921;49.006;9.292;2023-07-02T02:41:37;7.15;;;3.97;;
50932;SDS011;36921;49.006;9.292;2023-07-02T02:44:02;11.65;;;4.45;;
50932;SDS011;36921;49.006;9.292;2023-07-02T02:46:27;10.10;;;3.20;;
50932;SDS011;36921;49.006;9.292;2023-07-02T02:48:53;8.35;;;4.00;;
50932;SDS011;36921;49.006;9.292;2023-07-02T02:51:18;6.68;;;3.15;;
50932;SDS011;36921;49.006;9.292;2023-07-02T02:53:43;5.68;;;2.97;;
50932;SDS011;36921;49.006;9.292;2023-07-02T02:56:09;8.43;;;3.08;;
50932;SDS011;36921;49.006;9.292;2023-07-02T02:58:34;4.72;;;2.45;;
50932;SDS011;36921;49.006;9.292;2023-07-02T03:00:59;8.73;;;3.13;;
50932;SDS011;36921;49.006;9.292;2023-07-02T03:03:25;4.47;;;2.88;;
50932;SDS011;36921;49.006;9.292;2023-07-02T03:05:50;6.25;;;3.60;;
50932;SDS011;36921;49.006;9.292;2023-07-02T03:08:15;8.18;;;3.13;;
50932;SDS011;36921;49.006;9.292;2023-07-02T03:10:41;12.00;;;3.42;;
50932;SDS011;36921;49.006;9.292;2023-07-02T03:13:06;5.68;;;3.25;;
50932;SDS011;36921;49.006;9.292;2023-07-02T03:15:32;9.57;;;2.92;;
50932;SDS011;36921;49.006;9.292;2023-07-02T03:17:57;8.30;;;3.60;;
50932;SDS011;36921;49.006;9.292;2023-07-02T03:20:23;9.77;;;3.60;;
50932;SDS011;36921;49.006;9.292;2023-07-02T03:22:49;6.97;;;3.55;;
50932;SDS011;36921;49.006;9.292;2023-07-02T03:25:14;11.30;;;3.58;;
50932;SDS011;36921;49.006;9.292;2023-07-02T03:27:40;8.27;;;3.35;;
50932;SDS011;36921;49.006;9.292;2023-07-02T03:30:05;6.93;;;3.58;;
50932;SDS011;36921;49.006;9.292;2023-07-02T03:32:31;9.98;;;3.72;;
50932;SDS011;36921;49.006;9.292;2023-07-02T03:34:56;6.57;;;3.80;;
50932;SDS011;36921;49.006;9.292;2023-07-02T03:37:22;9.57;;;3.78;;
50932;SDS011;36921;49.006;9.292;2023-07-02T03:39:47;8.73;;;3.97;;
50932;SDS011;36921;49.006;9.292;2023-07-02T03:42:12;12.27;;;4.07;;
50932;SDS011;36921;49.006;9.292;2023-07-02T03:44:37;12.10;;;3.67;;
50932;SDS011;36921;49.006;9.292;2023-07-02T03:47:03;11.88;;;4.28;;
50932;SDS011;36921;49.006;9.292;2023-07-02T03:49:28;7.90;;;3.58;;
50932;SDS011;36921;49.006;9.292;2023-07-02T03:51:54;8.40;;;4.05;;
50932;SDS011;36921;49.006;9.292;2023-07-02T03:54:19;8.93;;;3.70;;
50932;SDS011;36921;49.006;9.292;2023-07-02T03:56:45;12.18;;;4.03;;
50932;SDS011;36921;49.006;9.292;2023-07-02T03:59:10;12.00;;;4.25;;
50932;SDS011;36921;49.006;9.292;2023-07-02T04:01:35;9.38;;;4.43;;
50932;SDS011;36921;49.006;9.292;2023-07-02T04:04:01;10.05;;;4.60;;
50932;SDS011;36921;49.006;9.292;2023-07-02T04:06:26;7.47;;;4.03;;
50932;SDS011;36921;49.006;9.292;2023-07-02T04:08:51;12.63;;;4.00;;
50932;SDS011;36921;49.006;9.292;2023-07-02T04:11:17;9.93;;;3.85;;
50932;SDS011;36921;49.006;9.292;2023-07-02T04:13:42;9.07;;;4.50;;
50932;SDS011;36921;49.006;9.292;2023-07-02T04:16:07;12.43;;;4.72;;
50932;SDS011;36921;49.006;9.292;2023-07-02T04:18:33;9.90;;;4.57;;
50932;SDS011;36921;49.006;9.292;2023-07-02T04:20:58;11.32;;;4.43;;
50932;SDS011;36921;49.006;9.292;2023-07-02T04:23:24;12.73;;;4.55;;
50932;SDS011;36921;49.006;9.292;2023-07-02T04:25:50;10.20;;;4.70;;
50932;SDS011;36921;49.006;9.292;2023-07-02T04:28:15;10.93;;;4.43;;
50932;SDS011;36921;49.006;9.292;2023-07-02T04:30:41;11.02;;;4.22;;
50932;SDS011;36921;49.006;9.292;2023-07-02T04:33:07;12.38;;;4.57;;
50932;SDS011;36921;49.006;9.292;2023-07-02T04:35:32;15.02;;;4.75;;
50932;SDS011;36921;49.006;9.292;2023-07-02T04:37:57;15.30;;;4.60;;
50932;SDS011;36921;49.006;9.292;2023-07-02T04:40:23;12.45;;;5.20;;
50932;SDS011;36921;49.006;9.292;2023-07-02T04:42:49;14.63;;;5.07;;
50932;SDS011;36921;49.006;9.292;2023-07-02T04:45:22;17.08;;;4.85;;
50932;SDS011;36921;49.006;9.292;2023-07-02T04:47:48;9.48;;;4.30;;
50932;SDS011;36921;49.006;9.292;2023-07-02T04:50:13;9.93;;;4.50;;
50932;SDS011;36921;49.006;9.292;2023-07-02T04:52:38;10.60;;;4.68;;
50932;SDS011;36921;49.006;9.292;2023-07-02T04:55:04;12.55;;;4.70;;
50932;SDS011;36921;49.006;9.292;2023-07-02T04:57:30;11.93;;;4.88;;
50932;SDS011;36921;49.006;9.292;2023-07-02T04:59:55;9.88;;;4.47;;
50932;SDS011;36921;49.006;9.292;2023-07-02T05:02:20;9.23;;;4.13;;
50932;SDS011;36921;49.006;9.292;2023-07-02T05:04:45;9.88;;;4.18;;
50932;SDS011;36921;49.006;9.292;2023-07-02T05:07:11;12.23;;;4.13;;
50932;SDS011;36921;49.006;9.292;2023-07-02T05:09:36;8.32;;;4.10;;
50932;SDS011;36921;49.006;9.292;2023-07-02T05:12:01;11.00;;;4.28;;
50932;SDS011;36921;49.006;9.292;2023-07-02T05:14:27;10.60;;;4.53;;
50932;SDS011;36921;49.006;9.292;2023-07-02T05:16:52;11.38;;;3.92;;
50932;SDS011;36921;49.006;9.292;2023-07-02T05:19:17;13.50;;;4.32;;
50932;SDS011;36921;49.006;9.292;2023-07-02T05:21:43;7.78;;;3.70;;
50932;SDS011;36921;49.006;9.292;2023-07-02T05:24:08;7.00;;;3.35;;
50932;SDS011;36921;49.006;9.292;2023-07-02T05:26:34;8.13;;;3.38;;
50932;SDS011;36921;49.006;9.292;2023-07-02T05:28:59;6.30;;;3.05;;
50932;SDS011;36921;49.006;9.292;2023-07-02T05:31:25;9.65;;;3.03;;
50932;SDS011;36921;49.006;9.292;2023-07-02T05:33:50;6.88;;;2.40;;
50932;SDS011;36921;49.006;9.292;2023-07-02T05:36:15;7.80;;;2.70;;
50932;SDS011;36921;49.006;9.292;2023-07-02T05:38:41;11.00;;;2.80;;
50932;SDS011;36921;49.006;9.292;2023-07-02T05:41:06;6.18;;;2.42;;
50932;SDS011;36921;49.006;9.292;2023-07-02T05:43:31;7.20;;;2.65;;
50932;SDS011;36921;49.006;9.292;2023-07-02T05:46:00;12.57;;;3.70;;
50932;SDS011;36921;49.006;9.292;2023-07-02T05:48:25;7.80;;;2.40;;
50932;SDS011;36921;49.006;9.292;2023-07-02T05:50:51;11.95;;;3.20;;
50932;SDS011;36921;49.006;9.292;2023-07-02T05:53:16;7.07;;;2.85;;
50932;SDS011;36921;49.006;9.292;2023-07-02T05:55:42;5.55;;;2.92;;
50932;SDS011;36921;49.006;9.292;2023-07-02T05:58:08;8.25;;;3.33;;
50932;SDS011;36921;49.006;9.292;2023-07-02T06:00:33;7.45;;;3.30;;
50932;SDS011;36921;49.006;9.292;2023-07-02T06:02:58;10.85;;;3.72;;
50932;SDS011;36921;49.006;9.292;2023-07-02T06:05:25;7.93;;;3.67;;
50932;SDS011;36921;49.006;9.292;2023-07-02T06:07:50;11.23;;;3.60;;
50932;SDS011;36921;49.006;9.292;2023-07-02T06:10:15;11.20;;;3.80;;
50932;SDS011;36921;49.006;9.292;2023-07-02T06:12:41;13.80;;;4.10;;
50932;SDS011;36921;49.006;9.292;2023-07-02T06:15:08;8.98;;;4.05;;
50932;SDS011;36921;49.006;9.292;2023-07-02T06:17:34;9.65;;;3.83;;
50932;SDS011;36921;49.006;9.292;2023-07-02T06:19:59;10.95;;;4.18;;
50932;SDS011;36921;49.006;9.292;2023-07-02T06:22:24;12.73;;;4.28;;
50932;SDS011;36921;49.006;9.292;2023-07-02T06:24:49;11.48;;;4.38;;
50932;SDS011;36921;49.006;9.292;2023-07-02T06:27:15;12.32;;;4.93;;
50932;SDS011;36921;49.006;9.292;2023-07-02T06:29:40;12.45;;;4.50;;
50932;SDS011;36921;49.006;9.292;2023-07-02T06:32:05;10.43;;;4.55;;
50932;SDS011;36921;49.006;9.292;2023-07-02T06:34:31;9.25;;;4.40;;
50932;SDS011;36921;49.006;9.292;2023-07-02T06:36:56;11.57;;;4.88;;
50932;SDS011;36921;49.006;9.292;2023-07-02T06:39:21;14.27;;;4.13;;
50932;SDS011;36921;49.006;9.292;2023-07-02T06:41:47;11.13;;;4.35;;
50932;SDS011;36921;49.006;9.292;2023-07-02T06:44:12;10.77;;;4.80;;
50932;SDS011;36921;49.006;9.292;2023-07-02T06:46:37;9.60;;;4.53;;
50932;SDS011;36921;49.006;9.292;2023-07-02T06:49:03;12.27;;;4.88;;
50932;SDS011;36921;49.006;9.292;2023-07-02T06:51:28;12.40;;;4.45;;
50932;SDS011;36921;49.006;9.292;2023-07-02T06:53:54;13.82;;;4.80;;
50932;SDS011;36921;49.006;9.292;2023-07-02T06:56:19;11.13;;;4.53;;
50932;SDS011;36921;49.006;9.292;2023-07-02T06:58:44;12.85;;;4.55;;
50932;SDS011;36921;49.006;9.292;2023-07-02T07:01:10;11.95;;;5.00;;
50932;SDS011;36921;49.006;9.292;2023-07-02T07:03:35;10.10;;;4.65;;
50932;SDS011;36921;49.006;9.292;2023-07-02T07:06:01;12.48;;;4.88;;
50932;SDS011;36921;49.006;9.292;2023-07-02T07:08:26;10.80;;;4.63;;
50932;SDS011;36921;49.006;9.292;2023-07-02T07:10:53;11.15;;;4.97;;
50932;SDS011;36921;49.006;9.292;2023-07-02T07:13:18;11.70;;;5.40;;
50932;SDS011;36921;49.006;9.292;2023-07-02T07:15:44;12.07;;;5.07;;
50932;SDS011;36921;49.006;9.292;2023-07-02T07:18:09;11.57;;;4.82;;
50932;SDS011;36921;49.006;9.292;2023-07-02T07:20:35;10.70;;;5.57;;
50932;SDS011;36921;49.006;9.292;2023-07-02T07:23:01;11.60;;;5.40;;
50932;SDS011;36921;49.006;9.292;2023-07-02T07:25:27;10.18;;;4.82;;
50932;SDS011;36921;49.006;9.292;2023-07-02T07:27:53;12.35;;;5.55;;
50932;SDS011;36921;49.006;9.292;2023-07-02T07:30:18;14.45;;;6.05;;
50932;SDS011;36921;49.006;9.292;2023-07-02T07:35:13;9.93;;;5.40;;
50932;SDS011;36921;49.006;9.292;2023-07-02T07:37:40;14.48;;;5.60;;
50932;SDS011;36921;49.006;9.292;2023-07-02T07:40:05;10.93;;;5.75;;
50932;SDS011;36921;49.006;9.292;2023-07-02T07:45:05;12.75;;;6.38;;
50932;SDS011;36921;49.006;9.292;2023-07-02T07:47:31;10.55;;;5.15;;
50932;SDS011;36921;49.006;9.292;2023-07-02T07:49:57;10.43;;;5.10;;
50932;SDS011;36921;49.006;9.292;2023-07-02T07:52:23;10.38;;;5.88;;
50932;SDS011;36921;49.006;9.292;2023-07-02T07:54:48;12.23;;;5.32;;
50932;SDS011;36921;49.006;9.292;2023-07-02T07:57:14;8.57;;;5.03;;
50932;SDS011;36921;49.006;9.292;2023-07-02T07:59:39;11.05;;;5.50;;
50932;SDS011;36921;49.006;9.292;2023-07-02T08:02:05;10.35;;;5.30;;
50932;SDS011;36921;49.006;9.292;2023-07-02T08:04:31;13.10;;;5.95;;
50932;SDS011;36921;49.006;9.292;2023-07-02T08:06:56;10.25;;;5.75;;
50932;SDS011;36921;49.006;9.292;2023-07-02T08:09:22;9.27;;;5.22;;
50932;SDS011;36921;49.006;9.292;2023-07-02T08:11:50;11.98;;;5.28;;
50932;SDS011;36921;49.006;9.292;2023-07-02T08:14:16;10.77;;;5.65;;
50932;SDS011;36921;49.006;9.292;2023-07-02T08:16:42;12.23;;;4.82;;
50932;SDS011;36921;49.006;9.292;2023-07-02T08:19:09;11.75;;;6.00;;
50932;SDS011;36921;49.006;9.292;2023-07-02T08:21:34;11.27;;;6.07;;
50932;SDS011;36921;49.006;9.292;2023-07-02T08:24:00;14.82;;;6.63;;
50932;SDS011;36921;49.006;9.292;2023-07-02T08:26:25;15.60;;;8.40;;
50932;SDS011;36921;49.006;9.292;2023-07-02T08:28:50;15.38;;;8.02;;
50932;SDS011;36921;49.006;9.292;2023-07-02T08:31:16;19.00;;;8.05;;
50932;SDS011;36921;49.006;9.292;2023-07-02T08:33:41;19.05;;;7.93;;
50932;SDS011;36921;49.006;9.292;2023-07-02T08:36:07;12.70;;;7.25;;
50932;SDS011;36921;49.006;9.292;2023-07-02T08:38:32;12.45;;;7.28;;
50932;SDS011;36921;49.006;9.292;2023-07-02T08:40:58;17.33;;;8.60;;
50932;SDS011;36921;49.006;9.292;2023-07-02T08:43:25;21.45;;;9.57;;
50932;SDS011;36921;49.006;9.292;2023-07-02T08:45:52;15.57;;;8.75;;
50932;SDS011;36921;49.006;9.292;2023-07-02T08:48:19;15.88;;;8.82;;
50932;SDS011;36921;49.006;9.292;2023-07-02T08:50:48;22.85;;;9.30;;
50932;SDS011;36921;49.006;9.292;2023-07-02T08:53:14;16.92;;;9.05;;
50932;SDS011;36921;49.006;9.292;2023-07-02T08:55:40;20.00;;;9.73;;
50932;SDS011;36921;49.006;9.292;2023-07-02T08:58:06;17.67;;;9.13;;
50932;SDS011;36921;49.006;9.292;2023-07-02T09:00:31;16.80;;;8.70;;
50932;SDS011;36921;49.006;9.292;2023-07-02T09:03:14;19.85;;;10.65;;
50932;SDS011;36921;49.006;9.292;2023-07-02T09:05:49;17.98;;;9.77;;
50932;SDS011;36921;49.006;9.292;2023-07-02T09:08:24;18.58;;;10.07;;
50932;SDS011;36921;49.006;9.292;2023-07-02T09:10:50;17.17;;;10.38;;
50932;SDS011;36921;49.006;9.292;2023-07-02T09:13:15;17.42;;;10.10;;
50932;SDS011;36921;49.006;9.292;2023-07-02T09:15:41;22.25;;;11.18;;
50932;SDS011;36921;49.006;9.292;2023-07-02T09:18:40;20.30;;;10.60;;
50932;SDS011;36921;49.006;9.292;2023-07-02T09:20:59;17.25;;;9.65;;
50932;SDS011;36921;49.006;9.292;2023-07-02T09:23:34;19.48;;;10.45;;
50932;SDS011;36921;49.006;9.292;2023-07-02T09:26:02;18.35;;;11.43;;
50932;SDS011;36921;49.006;9.292;2023-07-02T09:28:28;24.48;;;12.63;;
50932;SDS011;36921;49.006;9.292;2023-07-02T09:33:21;22.17;;;11.73;;
50932;SDS011;36921;49.006;9.292;2023-07-02T09:35:49;23.13;;;12.05;;
50932;SDS011;36921;49.006;9.292;2023-07-02T09:38:17;19.35;;;11.38;;
50932;SDS011;36921;49.006;9.292;2023-07-02T09:40:47;24.23;;;11.32;;
50932;SDS011;36921;49.006;9.292;2023-07-02T09:43:15;23.23;;;10.98;;
50932;SDS011;36921;49.006;9.292;2023-07-02T09:45:48;23.90;;;11.68;;
50932;SDS011;36921;49.006;9.292;2023-07-02T09:48:16;28.08;;;11.77;;
50932;SDS011;36921;49.006;9.292;2023-07-02T09:50:43;25.92;;;12.27;;
50932;SDS011;36921;49.006;9.292;2023-07-02T09:53:09;24.40;;;12.15;;
50932;SDS011;36921;49.006;9.292;2023-07-02T09:55:36;24.58;;;12.35;;
50932;SDS011;36921;49.006;9.292;2023-07-02T09:58:03;25.50;;;11.73;;
50932;SDS011;36921;49.006;9.292;2023-07-02T10:00:29;22.90;;;12.00;;
50932;SDS011;36921;49.006;9.292;2023-07-02T10:02:54;22.27;;;11.52;;
50932;SDS011;36921;49.006;9.292;2023-07-02T10:05:38;24.30;;;11.65;;
50932;SDS011;36921;49.006;9.292;2023-07-02T10:08:14;19.00;;;11.10;;
50932;SDS011;36921;49.006;9.292;2023-07-02T10:10:43;22.75;;;11.38;;
50932;SDS011;36921;49.006;9.292;2023-07-02T10:13:08;22.52;;;12.35;;
50932;SDS011;36921;49.006;9.292;2023-07-02T10:15:34;19.77;;;11.13;;
50932;SDS011;36921;49.006;9.292;2023-07-02T10:18:05;22.15;;;10.55;;
50932;SDS011;36921;49.006;9.292;2023-07-02T10:22:59;18.88;;;10.40;;
50932;SDS011;36921;49.006;9.292;2023-07-02T10:25:36;20.75;;;11.25;;
50932;SDS011;36921;49.006;9.292;2023-07-02T10:28:19;22.08;;;11.63;;
50932;SDS011;36921;49.006;9.292;2023-07-02T10:30:47;18.83;;;11.90;;
50932;SDS011;36921;49.006;9.292;2023-07-02T10:33:16;20.67;;;10.57;;
50932;SDS011;36921;49.006;9.292;2023-07-02T10:35:46;19.15;;;10.45;;
50932;SDS011;36921;49.006;9.292;2023-07-02T10:38:19;18.77;;;10.40;;
50932;SDS011;36921;49.006;9.292;2023-07-02T10:40:44;20.77;;;10.35;;
50932;SDS011;36921;49.006;9.292;2023-07-02T10:43:10;19.55;;;11.15;;
50932;SDS011;36921;49.006;9.292;2023-07-02T10:45:36;20.95;;;10.63;;
50932;SDS011;36921;49.006;9.292;2023-07-02T10:48:02;21.65;;;11.07;;
50932;SDS011;36921;49.006;9.292;2023-07-02T10:50:29;17.02;;;10.32;;
50932;SDS011;36921;49.006;9.292;2023-07-02T10:52:57;21.63;;;10.52;;
50932;SDS011;36921;49.006;9.292;2023-07-02T10:55:23;16.20;;;10.40;;
50932;SDS011;36921;49.006;9.292;2023-07-02T10:57:51;20.75;;;10.90;;
50932;SDS011;36921;49.006;9.292;2023-07-02T11:02:55;17.33;;;10.00;;
50932;SDS011;36921;49.006;9.292;2023-07-02T11:05:20;15.82;;;9.60;;
50932;SDS011;36921;49.006;9.292;2023-07-02T11:07:46;17.05;;;9.70;;
50932;SDS011;36921;49.006;9.292;2023-07-02T11:10:17;21.67;;;9.27;;
50932;SDS011;36921;49.006;9.292;2023-07-02T11:12:44;18.55;;;9.95;;
50932;SDS011;36921;49.006;9.292;2023-07-02T11:15:10;15.70;;;9.77;;
50932;SDS011;36921;49.006;9.292;2023-07-02T11:17:37;18.25;;;10.20;;
50932;SDS011;36921;49.006;9.292;2023-07-02T11:20:04;17.70;;;10.63;;
50932;SDS011;36921;49.006;9.292;2023-07-02T11:22:31;19.33;;;10.32;;
50932;SDS011;36921;49.006;9.292;2023-07-02T11:24:58;14.85;;;9.63;;
50932;SDS011;36921;49.006;9.292;2023-07-02T11:27:40;18.95;;;10.82;;
50932;SDS011;36921;49.006;9.292;2023-07-02T11:30:07;17.63;;;10.40;;
50932;SDS011;36921;49.006;9.292;2023-07-02T11:35:14;18.35;;;9.68;;
50932;SDS011;36921;49.006;9.292;2023-07-02T11:37:40;21.13;;;10.90;;
50932;SDS011;36921;49.006;9.292;2023-07-02T11:40:06;16.60;;;9.02;;
50932;SDS011;36921;49.006;9.292;2023-07-02T11:42:32;18.88;;;10.07;;
50932;SDS011;36921;49.006;9.292;2023-07-02T11:44:58;16.35;;;9.60;;
50932;SDS011;36921;49.006;9.292;2023-07-02T11:47:23;18.98;;;9.88;;
50932;SDS011;36921;49.006;9.292;2023-07-02T11:49:50;18.17;;;9.98;;
50932;SDS011;36921;49.006;9.292;2023-07-02T11:52:15;21.45;;;9.98;;
50932;SDS011;36921;49.006;9.292;2023-07-02T11:54:41;20.00;;;9.38;;
50932;SDS011;36921;49.006;9.292;2023-07-02T11:57:06;15.65;;;9.07;;
50932;SDS011;36921;49.006;9.292;2023-07-02T11:59:31;17.10;;;9.77;;
50932;SDS011;36921;49.006;9.292;2023-07-02T12:01:57;19.25;;;10.27;;
50932;SDS011;36921;49.006;9.292;2023-07-02T12:04:22;17.23;;;9.80;;
50932;SDS011;36921;49.006;9.292;2023-07-02T12:06:47;16.50;;;9.52;;
50932;SDS011;36921;49.006;9.292;2023-07-02T12:09:13;16.40;;;9.38;;
50932;SDS011;36921;49.006;9.292;2023-07-02T12:11:38;15.00;;;9.57;;
50932;SDS011;36921;49.006;9.292;2023-07-02T12:14:04;15.35;;;9.23;;
50932;SDS011;36921;49.006;9.292;2023-07-02T12:16:29;17.38;;;8.98;;
50932;SDS011;36921;49.006;9.292;2023-07-02T12:18:54;16.88;;;10.05;;
50932;SDS011;36921;49.006;9.292;2023-07-02T12:21:19;17.17;;;9.55;;
50932;SDS011;36921;49.006;9.292;2023-07-02T12:23:45;17.90;;;10.05;;
50932;SDS011;36921;49.006;9.292;2023-07-02T12:26:11;19.23;;;9.80;;
50932;SDS011;36921;49.006;9.292;2023-07-02T12:28:37;16.17;;;9.60;;
50932;SDS011;36921;49.006;9.292;2023-07-02T12:31:02;17.30;;;9.15;;
50932;SDS011;36921;49.006;9.292;2023-07-02T12:33:28;20.15;;;10.77;;
50932;SDS011;36921;49.006;9.292;2023-07-02T12:35:53;20.90;;;10.50;;
50932;SDS011;36921;49.006;9.292;2023-07-02T12:38:18;20.17;;;10.23;;
50932;SDS011;36921;49.006;9.292;2023-07-02T12:40:43;20.70;;;10.13;;
50932;SDS011;36921;49.006;9.292;2023-07-02T12:43:09;18.30;;;9.38;;
50932;SDS011;36921;49.006;9.292;2023-07-02T12:45:34;19.05;;;9.95;;
50932;SDS011;36921;49.006;9.292;2023-07-02T12:47:59;18.13;;;9.65;;
50932;SDS011;36921;49.006;9.292;2023-07-02T12:50:25;20.95;;;10.38;;
50932;SDS011;36921;49.006;9.292;2023-07-02T12:52:50;18.35;;;9.73;;
50932;SDS011;36921;49.006;9.292;2023-07-02T12:55:15;19.42;;;9.93;;
50932;SDS011;36921;49.006;9.292;2023-07-02T12:57:41;16.05;;;8.98;;
50932;SDS011;36921;49.006;9.292;2023-07-02T13:00:06;16.48;;;9.65;;
50932;SDS011;36921;49.006;9.292;2023-07-02T13:02:33;17.02;;;9.07;;
50932;SDS011;36921;49.006;9.292;2023-07-02T13:04:59;18.50;;;9.55;;
50932;SDS011;36921;49.006;9.292;2023-07-02T13:07:24;15.20;;;8.75;;
50932;SDS011;36921;49.006;9.292;2023-07-02T13:09:50;16.17;;;9.15;;
50932;SDS011;36921;49.006;9.292;2023-07-02T13:12:16;18.48;;;10.15;;
50932;SDS011;36921;49.006;9.292;2023-07-02T13:14:43;18.35;;;9.68;;
50932;SDS011;36921;49.006;9.292;2023-07-02T13:17:08;18.65;;;9.77;;
50932;SDS011;36921;49.006;9.292;2023-07-02T13:19:33;18.17;;;9.70;;
50932;SDS011;36921;49.006;9.292;2023-07-02T13:22:00;18.77;;;10.00;;
50932;SDS011;36921;49.006;9.292;2023-07-02T13:24:27;17.08;;;9.88;;
50932;SDS011;36921;49.006;9.292;2023-07-02T13:26:57;17.98;;;9.30;;
50932;SDS011;36921;49.006;9.292;2023-07-02T13:29:22;23.08;;;10.77;;
50932;SDS011;36921;49.006;9.292;2023-07-02T13:31:47;18.50;;;9.87;;
50932;SDS011;36921;49.006;9.292;2023-07-02T13:34:13;19.52;;;9.68;;
50932;SDS011;36921;49.006;9.292;2023-07-02T13:36:38;17.80;;;10.13;;
50932;SDS011;36921;49.006;9.292;2023-07-02T13:39:03;17.57;;;9.50;;
50932;SDS011;36921;49.006;9.292;2023-07-02T13:41:29;16.33;;;9.60;;
50932;SDS011;36921;49.006;9.292;2023-07-02T13:43:55;18.60;;;9.30;;
50932;SDS011;36921;49.006;9.292;2023-07-02T13:46:21;18.98;;;8.63;;
50932;SDS011;36921;49.006;9.292;2023-07-02T13:48:46;17.63;;;9.55;;
50932;SDS011;36921;49.006;9.292;2023-07-02T13:51:11;19.02;;;9.43;;
50932;SDS011;36921;49.006;9.292;2023-07-02T13:53:37;16.75;;;9.35;;
50932;SDS011;36921;49.006;9.292;2023-07-02T13:56:02;18.38;;;9.23;;
50932;SDS011;36921;49.006;9.292;2023-07-02T14:01:10;15.45;;;9.18;;
50932;SDS011;36921;49.006;9.292;2023-07-02T14:03:35;16.15;;;9.00;;
50932;SDS011;36921;49.006;9.292;2023-07-02T14:06:00;15.77;;;8.85;;
50932;SDS011;36921;49.006;9.292;2023-07-02T14:08:25;19.05;;;8.90;;
50932;SDS011;36921;49.006;9.292;2023-07-02T14:10:51;15.43;;;8.30;;
50932;SDS011;36921;49.006;9.292;2023-07-02T14:13:16;15.10;;;8.80;;
50932;SDS011;36921;49.006;9.292;2023-07-02T14:15:41;21.23;;;9.33;;
50932;SDS011;36921;49.006;9.292;2023-07-02T14:18:07;12.90;;;8.43;;
50932;SDS011;36921;49.006;9.292;2023-07-02T14:20:32;17.25;;;9.48;;
50932;SDS011;36921;49.006;9.292;2023-07-02T14:22:57;20.58;;;9.85;;
50932;SDS011;36921;49.006;9.292;2023-07-02T14:25:22;18.05;;;8.38;;
50932;SDS011;36921;49.006;9.292;2023-07-02T14:27:48;13.18;;;8.15;;
50932;SDS011;36921;49.006;9.292;2023-07-02T14:30:13;19.42;;;8.98;;
50932;SDS011;36921;49.006;9.292;2023-07-02T14:32:38;17.83;;;8.57;;
50932;SDS011;36921;49.006;9.292;2023-07-02T14:35:05;16.42;;;8.65;;
50932;SDS011;36921;49.006;9.292;2023-07-02T14:37:31;16.45;;;9.48;;
50932;SDS011;36921;49.006;9.292;2023-07-02T14:39:56;14.95;;;8.43;;
50932;SDS011;36921;49.006;9.292;2023-07-02T14:42:21;15.38;;;8.80;;
50932;SDS011;36921;49.006;9.292;2023-07-02T14:44:47;17.52;;;9.02;;
50932;SDS011;36921;49.006;9.292;2023-07-02T14:47:12;15.95;;;9.05;;
50932;SDS011;36921;49.006;9.292;2023-07-02T14:49:38;14.68;;;9.20;;
50932;SDS011;36921;49.006;9.292;2023-07-02T14:52:03;16.35;;;9.13;;